sensor_id;sensor_type;location;lat;lon;timestamp;temperature;humidity
64858;SHT30;51335;51.148;6.950;2023-08-06T00:00:23;15.59;97.15
64858;SHT30;51335;51.148;6.950;2023-08-06T00:00:53;15.55;97.10
64858;SHT30;51335;51.148;6.950;2023-08-06T00:01:23;15.53;97.28
64858;SHT30;51335;51.148;6.950;2023-08-06T00:01:53;15.52;97.36
64858;SHT30;51335;51.148;6.950;2023-08-06T00:02:24;15.53;97.41
64858;SHT30;51335;51.148;6.950;2023-08-06T00:02:54;15.58;97.49
64858;SHT30;51335;51.148;6.950;2023-08-06T00:03:24;15.55;97.44
64858;SHT30;51335;51.148;6.950;2023-08-06T00:03:54;15.53;97.58
64858;SHT30;51335;51.148;6.950;2023-08-06T00:04:25;15.51;97.50
64858;SHT30;51335;51.148;6.950;2023-08-06T00:04:55;15.52;97.65
64858;SHT30;51335;51.148;6.950;2023-08-06T00:05:25;15.53;97.61
64858;SHT30;51335;51.148;6.950;2023-08-06T00:05:55;15.52;97.65
64858;SHT30;51335;51.148;6.950;2023-08-06T00:06:26;15.49;97.58
64858;SHT30;51335;51.148;6.950;2023-08-06T00:06:56;15.52;97.53
64858;SHT30;51335;51.148;6.950;2023-08-06T00:07:26;15.55;97.51
64858;SHT30;51335;51.148;6.950;2023-08-06T00:07:57;15.53;97.48
64858;SHT30;51335;51.148;6.950;2023-08-06T00:08:27;15.51;97.49
64858;SHT30;51335;51.148;6.950;2023-08-06T00:08:57;15.53;97.48
64858;SHT30;51335;51.148;6.950;2023-08-06T00:09:27;15.52;97.37
64858;SHT30;51335;51.148;6.950;2023-08-06T00:09:57;15.51;97.41
64858;SHT30;51335;51.148;6.950;2023-08-06T00:10:28;15.46;97.46
64858;SHT30;51335;51.148;6.950;2023-08-06T00:10:58;15.51;97.50
64858;SHT30;51335;51.148;6.950;2023-08-06T00:11:28;15.51;97.57
64858;SHT30;51335;51.148;6.950;2023-08-06T00:11:58;15.53;97.66
64858;SHT30;51335;51.148;6.950;2023-08-06T00:12:29;15.55;97.52
64858;SHT30;51335;51.148;6.950;2023-08-06T00:12:59;15.53;97.53
64858;SHT30;51335;51.148;6.950;2023-08-06T00:13:29;15.52;97.64
64858;SHT30;51335;51.148;6.950;2023-08-06T00:13:59;15.53;97.70
64858;SHT30;51335;51.148;6.950;2023-08-06T00:14:30;15.51;97.75
64858;SHT30;51335;51.148;6.950;2023-08-06T00:15:00;15.55;97.61
64858;SHT30;51335;51.148;6.950;2023-08-06T00:15:30;15.53;97.04
64858;SHT30;51335;51.148;6.950;2023-08-06T00:16:13;15.46;97.06
64858;SHT30;51335;51.148;6.950;2023-08-06T00:16:44;15.46;97.22
64858;SHT30;51335;51.148;6.950;2023-08-06T00:17:14;15.48;97.44
64858;SHT30;51335;51.148;6.950;2023-08-06T00:17:44;15.46;97.23
64858;SHT30;51335;51.148;6.950;2023-08-06T00:18:15;15.48;97.19
64858;SHT30;51335;51.148;6.950;2023-08-06T00:18:45;15.45;97.23
64858;SHT30;51335;51.148;6.950;2023-08-06T00:19:15;15.42;97.21
64858;SHT30;51335;51.148;6.950;2023-08-06T00:19:45;15.41;97.32
64858;SHT30;51335;51.148;6.950;2023-08-06T00:20:16;15.38;97.39
64858;SHT30;51335;51.148;6.950;2023-08-06T00:20:46;15.35;97.57
64858;SHT30;51335;51.148;6.950;2023-08-06T00:21:16;15.34;97.67
64858;SHT30;51335;51.148;6.950;2023-08-06T00:21:46;15.31;97.68
64858;SHT30;51335;51.148;6.950;2023-08-06T00:22:17;15.27;97.73
64858;SHT30;51335;51.148;6.950;2023-08-06T00:22:47;15.27;97.81
64858;SHT30;51335;51.148;6.950;2023-08-06T00:23:17;15.27;97.89
64858;SHT30;51335;51.148;6.950;2023-08-06T00:23:47;15.24;97.84
64858;SHT30;51335;51.148;6.950;2023-08-06T00:24:18;15.21;97.84
64858;SHT30;51335;51.148;6.950;2023-08-06T00:24:48;15.20;97.94
64858;SHT30;51335;51.148;6.950;2023-08-06T00:25:18;15.14;97.97
64858;SHT30;51335;51.148;6.950;2023-08-06T00:25:48;15.11;98.06
64858;SHT30;51335;51.148;6.950;2023-08-06T00:26:19;15.10;98.08
64858;SHT30;51335;51.148;6.950;2023-08-06T00:26:49;15.10;98.19
64858;SHT30;51335;51.148;6.950;2023-08-06T00:27:19;15.10;98.21
64858;SHT30;51335;51.148;6.950;2023-08-06T00:27:49;15.11;98.17
64858;SHT30;51335;51.148;6.950;2023-08-06T00:28:20;15.05;98.09
64858;SHT30;51335;51.148;6.950;2023-08-06T00:28:50;15.01;98.11
64858;SHT30;51335;51.148;6.950;2023-08-06T00:29:20;14.98;98.14
64858;SHT30;51335;51.148;6.950;2023-08-06T00:29:50;14.95;98.38
64858;SHT30;51335;51.148;6.950;2023-08-06T00:30:21;14.94;98.41
64858;SHT30;51335;51.148;6.950;2023-08-06T00:30:57;14.91;98.58
64858;SHT30;51335;51.148;6.950;2023-08-06T00:31:27;14.91;98.74
64858;SHT30;51335;51.148;6.950;2023-08-06T00:31:58;14.87;98.77
64858;SHT30;51335;51.148;6.950;2023-08-06T00:32:28;14.87;98.84
64858;SHT30;51335;51.148;6.950;2023-08-06T00:32:58;14.85;98.81
64858;SHT30;51335;51.148;6.950;2023-08-06T00:33:28;14.88;98.89
64858;SHT30;51335;51.148;6.950;2023-08-06T00:33:59;14.84;98.83
64858;SHT30;51335;51.148;6.950;2023-08-06T00:34:29;14.83;98.89
64858;SHT30;51335;51.148;6.950;2023-08-06T00:34:59;14.79;99.01
64858;SHT30;51335;51.148;6.950;2023-08-06T00:35:30;14.81;98.99
64858;SHT30;51335;51.148;6.950;2023-08-06T00:36:00;14.80;99.02
64858;SHT30;51335;51.148;6.950;2023-08-06T00:36:30;14.77;99.04
64858;SHT30;51335;51.148;6.950;2023-08-06T00:37:00;14.73;99.03
64858;SHT30;51335;51.148;6.950;2023-08-06T00:37:31;14.70;99.06
64858;SHT30;51335;51.148;6.950;2023-08-06T00:38:01;14.72;99.18
64858;SHT30;51335;51.148;6.950;2023-08-06T00:38:31;14.67;99.19
64858;SHT30;51335;51.148;6.950;2023-08-06T00:39:01;14.66;99.36
64858;SHT30;51335;51.148;6.950;2023-08-06T00:39:32;14.64;99.75
64858;SHT30;51335;51.148;6.950;2023-08-06T00:40:02;14.64;99.61
64858;SHT30;51335;51.148;6.950;2023-08-06T00:40:33;14.64;99.63
64858;SHT30;51335;51.148;6.950;2023-08-06T00:41:03;14.66;99.51
64858;SHT30;51335;51.148;6.950;2023-08-06T00:41:33;14.66;99.50
64858;SHT30;51335;51.148;6.950;2023-08-06T00:42:03;14.63;99.51
64858;SHT30;51335;51.148;6.950;2023-08-06T00:42:34;14.63;99.53
64858;SHT30;51335;51.148;6.950;2023-08-06T00:43:04;14.59;99.51
64858;SHT30;51335;51.148;6.950;2023-08-06T00:43:34;14.59;99.45
64858;SHT30;51335;51.148;6.950;2023-08-06T00:44:05;14.56;99.48
64858;SHT30;51335;51.148;6.950;2023-08-06T00:44:35;14.53;99.54
64858;SHT30;51335;51.148;6.950;2023-08-06T00:45:06;14.52;99.59
64858;SHT30;51335;51.148;6.950;2023-08-06T00:45:37;14.52;99.79
64858;SHT30;51335;51.148;6.950;2023-08-06T00:46:07;14.50;99.71
64858;SHT30;51335;51.148;6.950;2023-08-06T00:46:38;14.46;99.71
64858;SHT30;51335;51.148;6.950;2023-08-06T00:47:08;14.45;99.78
64858;SHT30;51335;51.148;6.950;2023-08-06T00:47:39;14.42;99.78
64858;SHT30;51335;51.148;6.950;2023-08-06T00:48:10;14.40;99.80
64858;SHT30;51335;51.148;6.950;2023-08-06T00:48:41;14.40;99.85
64858;SHT30;51335;51.148;6.950;2023-08-06T00:49:12;14.37;99.91
64858;SHT30;51335;51.148;6.950;2023-08-06T00:49:42;14.36;99.93
64858;SHT30;51335;51.148;6.950;2023-08-06T00:50:13;14.35;99.99
64858;SHT30;51335;51.148;6.950;2023-08-06T00:50:43;14.37;99.99
64858;SHT30;51335;51.148;6.950;2023-08-06T00:51:14;14.36;99.99
64858;SHT30;51335;51.148;6.950;2023-08-06T00:51:45;14.36;99.99
64858;SHT30;51335;51.148;6.950;2023-08-06T00:52:16;14.33;99.99
64858;SHT30;51335;51.148;6.950;2023-08-06T00:52:46;14.33;99.99
64858;SHT30;51335;51.148;6.950;2023-08-06T00:53:16;14.32;99.99
64858;SHT30;51335;51.148;6.950;2023-08-06T00:53:47;14.28;99.99
64858;SHT30;51335;51.148;6.950;2023-08-06T00:54:18;14.29;99.99
64858;SHT30;51335;51.148;6.950;2023-08-06T00:54:48;14.29;99.99
64858;SHT30;51335;51.148;6.950;2023-08-06T00:55:19;14.29;99.99
64858;SHT30;51335;51.148;6.950;2023-08-06T00:55:50;14.26;99.99
64858;SHT30;51335;51.148;6.950;2023-08-06T00:56:20;14.28;99.99
64858;SHT30;51335;51.148;6.950;2023-08-06T00:56:51;14.26;99.99
64858;SHT30;51335;51.148;6.950;2023-08-06T00:57:24;14.29;99.99
64858;SHT30;51335;51.148;6.950;2023-08-06T00:57:55;14.32;99.99
64858;SHT30;51335;51.148;6.950;2023-08-06T00:58:26;14.30;99.99
64858;SHT30;51335;51.148;6.950;2023-08-06T00:58:56;14.33;99.99
64858;SHT30;51335;51.148;6.950;2023-08-06T00:59:27;14.35;99.99
64858;SHT30;51335;51.148;6.950;2023-08-06T00:59:58;14.33;99.99
64858;SHT30;51335;51.148;6.950;2023-08-06T01:00:28;14.33;99.99
64858;SHT30;51335;51.148;6.950;2023-08-06T01:00:59;14.36;99.99
64858;SHT30;51335;51.148;6.950;2023-08-06T01:01:29;14.39;99.99
64858;SHT30;51335;51.148;6.950;2023-08-06T01:01:59;14.40;99.99
64858;SHT30;51335;51.148;6.950;2023-08-06T01:02:29;14.40;99.99
64858;SHT30;51335;51.148;6.950;2023-08-06T01:03:00;14.40;99.99
64858;SHT30;51335;51.148;6.950;2023-08-06T01:03:30;14.39;99.99
64858;SHT30;51335;51.148;6.950;2023-08-06T01:04:01;14.43;99.99
64858;SHT30;51335;51.148;6.950;2023-08-06T01:04:31;14.43;99.99
64858;SHT30;51335;51.148;6.950;2023-08-06T01:05:02;14.46;99.99
64858;SHT30;51335;51.148;6.950;2023-08-06T01:05:32;14.46;99.99
64858;SHT30;51335;51.148;6.950;2023-08-06T01:06:02;14.49;99.99
64858;SHT30;51335;51.148;6.950;2023-08-06T01:06:46;14.50;99.99
64858;SHT30;51335;51.148;6.950;2023-08-06T01:07:28;14.52;99.99
64858;SHT30;51335;51.148;6.950;2023-08-06T01:08:22;14.55;99.99
64858;SHT30;51335;51.148;6.950;2023-08-06T01:08:59;14.56;99.99
64858;SHT30;51335;51.148;6.950;2023-08-06T01:13:32;14.62;99.99
64858;SHT30;51335;51.148;6.950;2023-08-06T01:14:15;14.67;99.99
64858;SHT30;51335;51.148;6.950;2023-08-06T01:15:13;14.79;99.99
64858;SHT30;51335;51.148;6.950;2023-08-06T01:15:49;14.79;99.99
64858;SHT30;51335;51.148;6.950;2023-08-06T01:16:20;14.76;99.99
64858;SHT30;51335;51.148;6.950;2023-08-06T01:16:51;14.74;99.99
64858;SHT30;51335;51.148;6.950;2023-08-06T01:17:23;14.80;99.99
64858;SHT30;51335;51.148;6.950;2023-08-06T01:17:54;14.80;99.99
64858;SHT30;51335;51.148;6.950;2023-08-06T01:18:25;14.81;99.99
64858;SHT30;51335;51.148;6.950;2023-08-06T01:18:58;14.85;99.87
64858;SHT30;51335;51.148;6.950;2023-08-06T01:19:28;14.87;99.76
64858;SHT30;51335;51.148;6.950;2023-08-06T01:19:58;14.88;99.61
64858;SHT30;51335;51.148;6.950;2023-08-06T01:20:30;14.85;99.52
64858;SHT30;51335;51.148;6.950;2023-08-06T01:21:00;14.88;99.67
64858;SHT30;51335;51.148;6.950;2023-08-06T01:21:31;14.85;99.70
64858;SHT30;51335;51.148;6.950;2023-08-06T01:22:01;14.83;99.69
64858;SHT30;51335;51.148;6.950;2023-08-06T01:22:31;14.85;99.69
64858;SHT30;51335;51.148;6.950;2023-08-06T01:23:01;14.84;99.69
64858;SHT30;51335;51.148;6.950;2023-08-06T01:23:32;14.84;99.69
64858;SHT30;51335;51.148;6.950;2023-08-06T01:24:02;14.83;99.77
64858;SHT30;51335;51.148;6.950;2023-08-06T01:24:33;14.85;99.73
64858;SHT30;51335;51.148;6.950;2023-08-06T01:25:03;14.85;99.59
64858;SHT30;51335;51.148;6.950;2023-08-06T01:25:39;14.87;99.57
64858;SHT30;51335;51.148;6.950;2023-08-06T01:27:30;14.90;99.48
64858;SHT30;51335;51.148;6.950;2023-08-06T01:28:18;14.88;99.45
64858;SHT30;51335;51.148;6.950;2023-08-06T01:29:48;14.93;99.17
64858;SHT30;51335;51.148;6.950;2023-08-06T01:30:25;14.88;99.06
64858;SHT30;51335;51.148;6.950;2023-08-06T01:30:59;14.93;98.95
64858;SHT30;51335;51.148;6.950;2023-08-06T01:31:35;14.94;98.74
64858;SHT30;51335;51.148;6.950;2023-08-06T01:32:08;14.93;98.79
64858;SHT30;51335;51.148;6.950;2023-08-06T01:32:44;14.88;98.72
64858;SHT30;51335;51.148;6.950;2023-08-06T01:33:16;14.84;98.78
64858;SHT30;51335;51.148;6.950;2023-08-06T01:33:49;14.83;98.88
64858;SHT30;51335;51.148;6.950;2023-08-06T01:34:23;14.79;98.93
64858;SHT30;51335;51.148;6.950;2023-08-06T01:34:54;14.74;99.07
64858;SHT30;51335;51.148;6.950;2023-08-06T01:35:26;14.72;99.13
64858;SHT30;51335;51.148;6.950;2023-08-06T01:35:57;14.79;99.18
64858;SHT30;51335;51.148;6.950;2023-08-06T01:36:30;14.77;99.10
64858;SHT30;51335;51.148;6.950;2023-08-06T01:37:01;14.76;99.04
64858;SHT30;51335;51.148;6.950;2023-08-06T01:37:32;14.77;99.13
64858;SHT30;51335;51.148;6.950;2023-08-06T01:38:02;14.73;99.08
64858;SHT30;51335;51.148;6.950;2023-08-06T01:38:33;14.67;99.18
64858;SHT30;51335;51.148;6.950;2023-08-06T01:39:04;14.67;99.33
64858;SHT30;51335;51.148;6.950;2023-08-06T01:39:34;14.63;99.42
64858;SHT30;51335;51.148;6.950;2023-08-06T01:40:09;14.59;99.48
64858;SHT30;51335;51.148;6.950;2023-08-06T01:40:40;14.59;99.52
64858;SHT30;51335;51.148;6.950;2023-08-06T01:41:10;14.60;99.61
64858;SHT30;51335;51.148;6.950;2023-08-06T01:41:40;14.56;99.64
64858;SHT30;51335;51.148;6.950;2023-08-06T01:42:11;14.55;99.65
64858;SHT30;51335;51.148;6.950;2023-08-06T01:42:41;14.59;99.76
64858;SHT30;51335;51.148;6.950;2023-08-06T01:43:11;14.57;99.82
64858;SHT30;51335;51.148;6.950;2023-08-06T01:43:41;14.53;99.84
64858;SHT30;51335;51.148;6.950;2023-08-06T01:44:12;14.55;99.88
64858;SHT30;51335;51.148;6.950;2023-08-06T01:44:42;14.53;99.93
64858;SHT30;51335;51.148;6.950;2023-08-06T01:45:12;14.53;99.99
64858;SHT30;51335;51.148;6.950;2023-08-06T01:45:43;14.55;99.99
64858;SHT30;51335;51.148;6.950;2023-08-06T01:46:13;14.53;99.99
64858;SHT30;51335;51.148;6.950;2023-08-06T01:46:43;14.56;99.99
64858;SHT30;51335;51.148;6.950;2023-08-06T01:47:14;14.57;99.99
64858;SHT30;51335;51.148;6.950;2023-08-06T01:47:44;14.56;99.99
64858;SHT30;51335;51.148;6.950;2023-08-06T01:48:14;14.57;99.99
64858;SHT30;51335;51.148;6.950;2023-08-06T01:48:44;14.62;99.99
64858;SHT30;51335;51.148;6.950;2023-08-06T01:49:15;14.66;99.99
64858;SHT30;51335;51.148;6.950;2023-08-06T01:49:45;14.67;99.99
64858;SHT30;51335;51.148;6.950;2023-08-06T01:50:15;14.67;99.89
64858;SHT30;51335;51.148;6.950;2023-08-06T01:50:45;14.64;99.89
64858;SHT30;51335;51.148;6.950;2023-08-06T01:51:16;14.66;99.96
64858;SHT30;51335;51.148;6.950;2023-08-06T01:51:46;14.66;99.96
64858;SHT30;51335;51.148;6.950;2023-08-06T01:52:16;14.66;99.99
64858;SHT30;51335;51.148;6.950;2023-08-06T01:52:46;14.66;99.99
64858;SHT30;51335;51.148;6.950;2023-08-06T01:53:17;14.69;99.99
64858;SHT30;51335;51.148;6.950;2023-08-06T01:53:47;14.64;99.99
64858;SHT30;51335;51.148;6.950;2023-08-06T01:54:17;14.64;99.99
64858;SHT30;51335;51.148;6.950;2023-08-06T01:54:48;14.64;99.99
64858;SHT30;51335;51.148;6.950;2023-08-06T01:55:18;14.62;99.99
64858;SHT30;51335;51.148;6.950;2023-08-06T01:55:49;14.63;99.99
64858;SHT30;51335;51.148;6.950;2023-08-06T01:56:19;14.62;99.99
64858;SHT30;51335;51.148;6.950;2023-08-06T01:56:51;14.62;99.99
64858;SHT30;51335;51.148;6.950;2023-08-06T01:57:21;14.63;99.99
64858;SHT30;51335;51.148;6.950;2023-08-06T01:57:52;14.62;99.99
64858;SHT30;51335;51.148;6.950;2023-08-06T01:58:22;14.62;99.99
64858;SHT30;51335;51.148;6.950;2023-08-06T01:58:52;14.62;99.99
64858;SHT30;51335;51.148;6.950;2023-08-06T01:59:22;14.67;99.99
64858;SHT30;51335;51.148;6.950;2023-08-06T01:59:52;14.66;99.99
64858;SHT30;51335;51.148;6.950;2023-08-06T02:00:23;14.69;99.99
64858;SHT30;51335;51.148;6.950;2023-08-06T02:00:53;14.72;99.99
64858;SHT30;51335;51.148;6.950;2023-08-06T02:01:23;14.73;99.82
64858;SHT30;51335;51.148;6.950;2023-08-06T02:01:53;14.76;99.91
64858;SHT30;51335;51.148;6.950;2023-08-06T02:02:24;14.72;99.95
64858;SHT30;51335;51.148;6.950;2023-08-06T02:02:54;14.70;99.98
64858;SHT30;51335;51.148;6.950;2023-08-06T02:03:24;14.67;99.99
64858;SHT30;51335;51.148;6.950;2023-08-06T02:03:54;14.67;99.99
64858;SHT30;51335;51.148;6.950;2023-08-06T02:04:25;14.69;99.99
64858;SHT30;51335;51.148;6.950;2023-08-06T02:04:55;14.72;99.99
64858;SHT30;51335;51.148;6.950;2023-08-06T02:05:25;14.67;99.87
64858;SHT30;51335;51.148;6.950;2023-08-06T02:05:55;14.67;99.90
64858;SHT30;51335;51.148;6.950;2023-08-06T02:06:26;14.64;99.93
64858;SHT30;51335;51.148;6.950;2023-08-06T02:06:56;14.62;99.98
64858;SHT30;51335;51.148;6.950;2023-08-06T02:07:26;14.59;99.95
64858;SHT30;51335;51.148;6.950;2023-08-06T02:07:56;14.62;99.99
64858;SHT30;51335;51.148;6.950;2023-08-06T02:08:27;14.56;99.99
64858;SHT30;51335;51.148;6.950;2023-08-06T02:08:57;14.53;99.99
64858;SHT30;51335;51.148;6.950;2023-08-06T02:09:27;14.53;99.99
64858;SHT30;51335;51.148;6.950;2023-08-06T02:09:58;14.55;99.99
64858;SHT30;51335;51.148;6.950;2023-08-06T02:10:28;14.53;99.99
64858;SHT30;51335;51.148;6.950;2023-08-06T02:10:58;14.53;99.99
64858;SHT30;51335;51.148;6.950;2023-08-06T02:11:28;14.50;99.99
64858;SHT30;51335;51.148;6.950;2023-08-06T02:11:59;14.50;99.99
64858;SHT30;51335;51.148;6.950;2023-08-06T02:12:29;14.45;99.99
64858;SHT30;51335;51.148;6.950;2023-08-06T02:12:59;14.45;99.99
64858;SHT30;51335;51.148;6.950;2023-08-06T02:13:30;14.39;99.99
64858;SHT30;51335;51.148;6.950;2023-08-06T02:14:00;14.39;99.99
64858;SHT30;51335;51.148;6.950;2023-08-06T02:14:30;14.40;99.99
64858;SHT30;51335;51.148;6.950;2023-08-06T02:15:00;14.43;99.99
64858;SHT30;51335;51.148;6.950;2023-08-06T02:15:31;14.39;99.99
64858;SHT30;51335;51.148;6.950;2023-08-06T02:16:01;14.39;99.99
64858;SHT30;51335;51.148;6.950;2023-08-06T02:16:31;14.40;99.99
64858;SHT30;51335;51.148;6.950;2023-08-06T02:17:01;14.37;99.99
64858;SHT30;51335;51.148;6.950;2023-08-06T02:17:32;14.37;99.99
64858;SHT30;51335;51.148;6.950;2023-08-06T02:18:02;14.36;99.99
64858;SHT30;51335;51.148;6.950;2023-08-06T02:18:32;14.35;99.99
64858;SHT30;51335;51.148;6.950;2023-08-06T02:19:02;14.43;99.99
64858;SHT30;51335;51.148;6.950;2023-08-06T02:19:33;14.45;99.99
64858;SHT30;51335;51.148;6.950;2023-08-06T02:20:04;14.45;99.99
64858;SHT30;51335;51.148;6.950;2023-08-06T02:20:34;14.43;99.99
64858;SHT30;51335;51.148;6.950;2023-08-06T02:21:05;14.42;99.99
64858;SHT30;51335;51.148;6.950;2023-08-06T02:21:35;14.40;99.99
64858;SHT30;51335;51.148;6.950;2023-08-06T02:22:05;14.42;99.99
64858;SHT30;51335;51.148;6.950;2023-08-06T02:22:35;14.40;99.99
64858;SHT30;51335;51.148;6.950;2023-08-06T02:23:06;14.43;99.99
64858;SHT30;51335;51.148;6.950;2023-08-06T02:23:36;14.42;99.99
64858;SHT30;51335;51.148;6.950;2023-08-06T02:24:06;14.40;99.99
64858;SHT30;51335;51.148;6.950;2023-08-06T02:24:37;14.43;99.99
64858;SHT30;51335;51.148;6.950;2023-08-06T02:25:07;14.40;99.99
64858;SHT30;51335;51.148;6.950;2023-08-06T02:25:37;14.46;99.99
64858;SHT30;51335;51.148;6.950;2023-08-06T02:26:08;14.45;99.99
64858;SHT30;51335;51.148;6.950;2023-08-06T02:26:38;14.43;99.99
64858;SHT30;51335;51.148;6.950;2023-08-06T02:27:08;14.45;99.99
64858;SHT30;51335;51.148;6.950;2023-08-06T02:27:38;14.45;99.99
64858;SHT30;51335;51.148;6.950;2023-08-06T02:28:09;14.47;99.99
64858;SHT30;51335;51.148;6.950;2023-08-06T02:28:39;14.55;99.99
64858;SHT30;51335;51.148;6.950;2023-08-06T02:29:09;14.53;99.99
64858;SHT30;51335;51.148;6.950;2023-08-06T02:29:40;14.55;99.99
64858;SHT30;51335;51.148;6.950;2023-08-06T02:30:10;14.56;99.99
64858;SHT30;51335;51.148;6.950;2023-08-06T02:30:50;14.60;99.99
64858;SHT30;51335;51.148;6.950;2023-08-06T02:31:20;14.57;99.99
64858;SHT30;51335;51.148;6.950;2023-08-06T02:31:50;14.57;99.99
64858;SHT30;51335;51.148;6.950;2023-08-06T02:32:20;14.60;99.99
64858;SHT30;51335;51.148;6.950;2023-08-06T02:32:51;14.59;99.99
64858;SHT30;51335;51.148;6.950;2023-08-06T02:33:21;14.55;99.99
64858;SHT30;51335;51.148;6.950;2023-08-06T02:33:51;14.50;99.99
64858;SHT30;51335;51.148;6.950;2023-08-06T02:34:21;14.49;99.99
64858;SHT30;51335;51.148;6.950;2023-08-06T02:34:52;14.49;99.99
64858;SHT30;51335;51.148;6.950;2023-08-06T02:35:22;14.55;99.99
64858;SHT30;51335;51.148;6.950;2023-08-06T02:35:59;14.49;99.99
64858;SHT30;51335;51.148;6.950;2023-08-06T02:36:29;14.52;99.99
64858;SHT30;51335;51.148;6.950;2023-08-06T02:36:59;14.46;99.99
64858;SHT30;51335;51.148;6.950;2023-08-06T02:37:30;14.46;99.99
64858;SHT30;51335;51.148;6.950;2023-08-06T02:38:00;14.42;99.99
64858;SHT30;51335;51.148;6.950;2023-08-06T02:38:31;14.43;99.99
64858;SHT30;51335;51.148;6.950;2023-08-06T02:39:01;14.40;99.99
64858;SHT30;51335;51.148;6.950;2023-08-06T02:39:32;14.36;99.99
64858;SHT30;51335;51.148;6.950;2023-08-06T02:40:02;14.36;99.99
64858;SHT30;51335;51.148;6.950;2023-08-06T02:40:32;14.37;99.99
64858;SHT30;51335;51.148;6.950;2023-08-06T02:41:03;14.37;99.99
64858;SHT30;51335;51.148;6.950;2023-08-06T02:41:33;14.36;99.99
64858;SHT30;51335;51.148;6.950;2023-08-06T02:42:04;14.43;99.99
64858;SHT30;51335;51.148;6.950;2023-08-06T02:42:34;14.50;99.99
64858;SHT30;51335;51.148;6.950;2023-08-06T02:43:05;14.57;99.99
64858;SHT30;51335;51.148;6.950;2023-08-06T02:43:35;14.59;99.99
64858;SHT30;51335;51.148;6.950;2023-08-06T02:44:05;14.55;99.99
64858;SHT30;51335;51.148;6.950;2023-08-06T02:44:35;14.50;99.99
64858;SHT30;51335;51.148;6.950;2023-08-06T02:45:06;14.52;99.99
64858;SHT30;51335;51.148;6.950;2023-08-06T02:45:36;14.50;99.99
64858;SHT30;51335;51.148;6.950;2023-08-06T02:46:07;14.45;99.99
64858;SHT30;51335;51.148;6.950;2023-08-06T02:46:37;14.45;99.99
64858;SHT30;51335;51.148;6.950;2023-08-06T02:47:07;14.46;99.99
64858;SHT30;51335;51.148;6.950;2023-08-06T02:47:37;14.43;99.99
64858;SHT30;51335;51.148;6.950;2023-08-06T02:48:08;14.40;99.99
64858;SHT30;51335;51.148;6.950;2023-08-06T02:48:38;14.39;99.99
64858;SHT30;51335;51.148;6.950;2023-08-06T02:49:08;14.42;99.99
64858;SHT30;51335;51.148;6.950;2023-08-06T02:49:38;14.40;99.99
64858;SHT30;51335;51.148;6.950;2023-08-06T02:50:09;14.45;99.99
64858;SHT30;51335;51.148;6.950;2023-08-06T02:50:40;14.45;99.99
64858;SHT30;51335;51.148;6.950;2023-08-06T02:51:10;14.43;99.99
64858;SHT30;51335;51.148;6.950;2023-08-06T02:51:41;14.50;99.99
64858;SHT30;51335;51.148;6.950;2023-08-06T02:52:11;14.49;99.99
64858;SHT30;51335;51.148;6.950;2023-08-06T02:52:41;14.49;99.99
64858;SHT30;51335;51.148;6.950;2023-08-06T02:53:12;14.45;99.99
64858;SHT30;51335;51.148;6.950;2023-08-06T02:53:42;14.46;99.99
64858;SHT30;51335;51.148;6.950;2023-08-06T02:54:12;14.46;99.99
64858;SHT30;51335;51.148;6.950;2023-08-06T02:54:42;14.46;99.99
64858;SHT30;51335;51.148;6.950;2023-08-06T02:55:13;14.47;99.99
64858;SHT30;51335;51.148;6.950;2023-08-06T02:55:47;14.47;99.99
64858;SHT30;51335;51.148;6.950;2023-08-06T02:56:17;14.50;99.99
64858;SHT30;51335;51.148;6.950;2023-08-06T02:56:48;14.53;99.99
64858;SHT30;51335;51.148;6.950;2023-08-06T02:57:18;14.55;99.99
64858;SHT30;51335;51.148;6.950;2023-08-06T02:57:48;14.59;99.99
64858;SHT30;51335;51.148;6.950;2023-08-06T02:58:18;14.59;99.99
64858;SHT30;51335;51.148;6.950;2023-08-06T02:58:48;14.56;99.99
64858;SHT30;51335;51.148;6.950;2023-08-06T02:59:19;14.57;99.99
64858;SHT30;51335;51.148;6.950;2023-08-06T02:59:49;14.55;99.99
64858;SHT30;51335;51.148;6.950;2023-08-06T03:00:19;14.53;99.99
64858;SHT30;51335;51.148;6.950;2023-08-06T03:01:02;14.60;99.99
64858;SHT30;51335;51.148;6.950;2023-08-06T03:01:33;14.56;99.99
64858;SHT30;51335;51.148;6.950;2023-08-06T03:02:03;14.59;99.99
64858;SHT30;51335;51.148;6.950;2023-08-06T03:02:33;14.59;99.99
64858;SHT30;51335;51.148;6.950;2023-08-06T03:03:04;14.59;99.99
64858;SHT30;51335;51.148;6.950;2023-08-06T03:03:34;14.57;99.99
64858;SHT30;51335;51.148;6.950;2023-08-06T03:04:04;14.56;99.99
64858;SHT30;51335;51.148;6.950;2023-08-06T03:04:35;14.56;99.99
64858;SHT30;51335;51.148;6.950;2023-08-06T03:05:05;14.57;99.99
64858;SHT30;51335;51.148;6.950;2023-08-06T03:05:35;14.60;99.99
64858;SHT30;51335;51.148;6.950;2023-08-06T03:06:06;14.66;99.99
64858;SHT30;51335;51.148;6.950;2023-08-06T03:06:36;14.70;99.99
64858;SHT30;51335;51.148;6.950;2023-08-06T03:07:06;14.66;99.99
64858;SHT30;51335;51.148;6.950;2023-08-06T03:07:36;14.69;99.99
64858;SHT30;51335;51.148;6.950;2023-08-06T03:08:07;14.66;99.99
64858;SHT30;51335;51.148;6.950;2023-08-06T03:08:37;14.64;99.99
64858;SHT30;51335;51.148;6.950;2023-08-06T03:09:07;14.63;99.99
64858;SHT30;51335;51.148;6.950;2023-08-06T03:09:37;14.59;99.99
64858;SHT30;51335;51.148;6.950;2023-08-06T03:10:08;14.59;99.99
64858;SHT30;51335;51.148;6.950;2023-08-06T03:10:39;14.60;99.99
64858;SHT30;51335;51.148;6.950;2023-08-06T03:11:09;14.62;99.99
64858;SHT30;51335;51.148;6.950;2023-08-06T03:11:39;14.67;99.99
64858;SHT30;51335;51.148;6.950;2023-08-06T03:12:09;14.69;99.99
64858;SHT30;51335;51.148;6.950;2023-08-06T03:12:40;14.64;99.99
64858;SHT30;51335;51.148;6.950;2023-08-06T03:13:10;14.67;99.99
64858;SHT30;51335;51.148;6.950;2023-08-06T03:13:40;14.67;99.99
64858;SHT30;51335;51.148;6.950;2023-08-06T03:14:10;14.74;99.99
64858;SHT30;51335;51.148;6.950;2023-08-06T03:14:41;14.76;99.99
64858;SHT30;51335;51.148;6.950;2023-08-06T03:15:11;14.81;99.87
64858;SHT30;51335;51.148;6.950;2023-08-06T03:15:41;14.83;99.81
64858;SHT30;51335;51.148;6.950;2023-08-06T03:16:11;14.80;99.74
64858;SHT30;51335;51.148;6.950;2023-08-06T03:16:42;14.77;99.75
64858;SHT30;51335;51.148;6.950;2023-08-06T03:17:12;14.80;99.79
64858;SHT30;51335;51.148;6.950;2023-08-06T03:17:42;14.84;99.66
64858;SHT30;51335;51.148;6.950;2023-08-06T03:18:12;14.83;99.66
64858;SHT30;51335;51.148;6.950;2023-08-06T03:18:43;14.80;99.62
64858;SHT30;51335;51.148;6.950;2023-08-06T03:19:13;14.77;99.73
64858;SHT30;51335;51.148;6.950;2023-08-06T03:19:43;14.74;99.76
64858;SHT30;51335;51.148;6.950;2023-08-06T03:20:13;14.76;99.78
64858;SHT30;51335;51.148;6.950;2023-08-06T03:20:44;14.74;99.89
64858;SHT30;51335;51.148;6.950;2023-08-06T03:21:15;14.73;99.90
64858;SHT30;51335;51.148;6.950;2023-08-06T03:21:45;14.72;99.94